Time;durP1;ratioP1;P1;durP2;ratioP2;P2;SDS_P1;SDS_P2;PMS_P1;PMS_P2;Temp;Humidity;BMP_temperature;BMP_pressure;BME280_temperature;BME280_humidity;BME280_pressure;Samples;Min_cycle;Max_cycle;Signal;HPM_P1;HPM_P2
2023/01/06 00:00:11;;;;;;;40.45;4.55;;;4.90;99.90;;;;;;21245922;27;20031;-78
2023/01/06 00:10:12;;;;;;;13.43;3.78;;;5.20;99.90;;;;;;21204076;27;20073;-78
2023/01/06 00:20:14;;;;;;;91.07;8.13;;;5.00;99.90;;;;;;21249897;27;20397;-77
2023/01/06 00:30:15;;;;;;;;;;;5.60;99.90;;;;;;21249470;27;20062;-78
2023/01/06 00:40:16;;;;;;;7.80;4.10;;;5.90;99.90;;;;;;21254081;27;19914;-78
2023/01/06 00:50:17;;;;;;;18.00;7.10;;;6.20;99.90;;;;;;21255781;27;20067;-78
2023/01/06 01:00:18;;;;;;;;;;;6.30;99.90;;;;;;21236277;27;20031;-78
2023/01/06 01:10:19;;;;;;;18.30;5.85;;;6.30;99.90;;;;;;21251117;28;20266;-78
2023/01/06 01:20:22;;;;;;;75.28;6.88;;;5.80;99.90;;;;;;21251741;28;20552;-78
2023/01/06 01:30:24;;;;;;;11.73;3.10;;;5.80;99.90;;;;;;21252204;27;20034;-78
2023/01/06 01:40:24;;;;;;;;;;;5.90;99.90;;;;;;21246298;27;20045;-78
2023/01/06 01:50:49;;;;;;;77.70;7.47;;;5.90;99.90;;;;;;21271023;27;19911;-78
2023/01/06 02:00:52;;;;;;;39.03;5.97;;;5.90;99.90;;;;;;21247360;27;20355;-77
2023/01/06 02:10:53;;;;;;;2.22;1.50;;;5.90;99.90;;;;;;21001948;28;20045;-78
2023/01/06 02:21:36;;;;;;;26.73;3.58;;;5.40;99.90;;;;;;20985017;28;20481;-78
2023/01/06 02:32:13;;;;;;;5.68;1.58;;;5.40;99.90;;;;;;20966474;28;20546;-78
2023/01/06 02:42:31;;;;;;;22.63;12.27;;;5.60;99.90;;;;;;20982043;28;20044;-78
2023/01/06 02:52:37;;;;;;;7.50;3.00;;;5.70;99.90;;;;;;20947659;28;20064;-78
2023/01/06 03:02:41;;;;;;;4.30;2.00;;;5.70;99.90;;;;;;20975468;28;20042;-78
2023/01/06 03:12:49;;;;;;;1.85;1.42;;;5.80;99.90;;;;;;21004063;28;20036;-78
2023/01/06 03:22:49;;;;;;;6.35;1.90;;;5.80;99.90;;;;;;21211858;27;20108;-78
2023/01/06 03:32:53;;;;;;;19.15;4.95;;;5.80;99.90;;;;;;21244529;27;20042;-78
2023/01/06 03:43:10;;;;;;;83.00;6.47;;;6.00;99.90;;;;;;21082829;28;20036;-78
2023/01/06 03:53:26;;;;;;;33.72;4.88;;;6.10;99.90;;;;;;21069031;28;20078;-78
2023/01/06 04:03:28;;;;;;;48.47;5.68;;;6.10;99.90;;;;;;21061170;28;20040;-78
2023/01/06 04:13:29;;;;;;;15.75;5.72;;;6.10;99.90;;;;;;20966427;28;20036;-78
2023/01/06 04:23:32;;;;;;;26.85;7.10;;;6.20;99.90;;;;;;20978187;28;20072;-78
2023/01/06 04:33:35;;;;;;;18.80;6.07;;;6.20;99.90;;;;;;20975706;28;20036;-78
2023/01/06 04:43:39;;;;;;;23.77;7.18;;;6.30;99.90;;;;;;21187942;27;20048;-78
2023/01/06 04:53:40;;;;;;;21.93;7.37;;;6.30;99.90;;;;;;21257005;27;20035;-78
2023/01/06 05:03:41;;;;;;;26.85;8.18;;;6.30;99.90;;;;;;21254386;27;20642;-79
2023/01/06 05:13:42;;;;;;;18.80;6.63;;;6.20;99.90;;;;;;21260438;27;20085;-77
2023/01/06 05:23:43;;;;;;;;;;;6.40;99.90;;;;;;21260895;27;20284;-77
2023/01/06 05:33:45;;;;;;;13.20;5.80;;;6.60;99.90;;;;;;21264961;27;19907;-78
2023/01/06 05:43:47;;;;;;;22.00;6.95;;;6.70;99.90;;;;;;21277133;27;20111;-78
2023/01/06 05:53:48;;;;;;;14.60;6.43;;;6.60;99.90;;;;;;21261900;27;20046;-79
2023/01/06 06:03:50;;;;;;;15.68;6.60;;;6.60;99.90;;;;;;21261937;27;20073;-79
2023/01/06 06:13:53;;;;;;;17.85;7.18;;;6.50;99.90;;;;;;21334649;27;20088;-79
2023/01/06 06:23:57;;;;;;;14.68;6.63;;;6.60;99.90;;;;;;21256640;27;20046;-79
2023/01/06 06:34:01;;;;;;;16.77;6.97;;;6.50;99.90;;;;;;21275204;27;20451;-79
2023/01/06 06:44:04;;;;;;;20.58;9.23;;;6.50;99.90;;;;;;21272932;27;20079;-79
2023/01/06 06:54:05;;;;;;;17.90;7.47;;;6.60;99.90;;;;;;21274216;27;20039;-78
2023/01/06 07:04:07;;;;;;;18.97;8.73;;;6.60;99.90;;;;;;21282940;27;20035;-79
2023/01/06 07:14:10;;;;;;;22.08;7.40;;;6.60;99.90;;;;;;21269643;27;20059;-78
2023/01/06 07:24:12;;;;;;;20.27;8.90;;;6.60;99.90;;;;;;21269012;27;20046;-79
2023/01/06 07:34:13;;;;;;;18.25;7.45;;;6.70;99.90;;;;;;21269071;27;20126;-79
2023/01/06 07:44:15;;;;;;;161.02;11.95;;;6.80;99.90;;;;;;21267729;27;20125;-78
2023/01/06 07:54:18;;;;;;;20.30;8.13;;;6.70;99.90;;;;;;21269727;27;20070;-79
2023/01/06 08:04:20;;;;;;;;;;;6.70;99.90;;;;;;21268172;27;20035;-78
2023/01/06 08:14:21;;;;;;;22.50;9.50;;;6.80;99.90;;;;;;21248850;27;19911;-79
2023/01/06 08:24:23;;;;;;;;;;;6.90;99.90;;;;;;21265484;27;20045;-79
2023/01/06 08:34:24;;;;;;;20.67;9.00;;;7.00;99.90;;;;;;21264773;27;19911;-79
2023/01/06 08:44:27;;;;;;;19.85;8.85;;;7.40;99.90;;;;;;21266681;27;20100;-78
2023/01/06 08:54:29;;;;;;;20.17;11.35;;;7.60;99.90;;;;;;21263234;27;20103;-79
2023/01/06 09:04:30;;;;;;;17.73;9.13;;;7.70;99.90;;;;;;21262610;28;20039;-78
2023/01/06 09:14:31;;;;;;;18.40;8.30;;;7.80;99.90;;;;;;21243160;28;20501;-79
2023/01/06 09:24:32;;;;;;;15.77;8.03;;;7.80;99.90;;;;;;21261755;28;20039;-78
2023/01/06 09:34:33;;;;;;;16.27;7.93;;;7.90;99.90;;;;;;21266621;28;20035;-78
2023/01/06 09:44:55;;;;;;;17.23;8.38;;;8.00;99.90;;;;;;21224000;28;20132;-78
2023/01/06 09:55:04;;;;;;;12.87;6.53;;;8.20;99.90;;;;;;21263682;27;20046;-78
2023/01/06 10:05:42;;;;;;;14.52;7.55;;;8.40;99.90;;;;;;21279768;27;20299;-78
2023/01/06 10:16:08;;;;;;;19.73;8.10;;;8.40;99.90;;;;;;21244287;27;20143;-79
2023/01/06 10:26:13;;;;;;;12.05;5.90;;;8.70;99.90;;;;;;20848618;28;20041;-78
2023/01/06 10:36:18;;;;;;;19.63;8.85;;;8.80;99.90;;;;;;20829437;28;20045;-78
2023/01/06 10:46:19;;;;;;;13.57;8.05;;;9.00;99.90;;;;;;20843956;28;20551;-79
2023/01/06 10:56:20;;;;;;;13.50;6.90;;;9.20;99.90;;;;;;20922531;27;20086;-78
2023/01/06 11:06:27;;;;;;;12.13;5.70;;;9.50;99.90;;;;;;21247314;27;20088;-78
2023/01/06 11:16:33;;;;;;;9.27;5.45;;;9.00;99.90;;;;;;21325468;27;20069;-78
2023/01/06 11:26:44;;;;;;;9.73;5.05;;;10.00;99.90;;;;;;21308867;27;20161;-78
2023/01/06 11:36:46;;;;;;;7.17;5.00;;;9.60;99.90;;;;;;21268194;27;20131;-78
2023/01/06 11:46:55;;;;;;;6.57;4.03;;;9.30;99.90;;;;;;21262302;27;20063;-78
2023/01/06 11:57:14;;;;;;;7.63;3.80;;;9.50;99.90;;;;;;21271569;27;20462;-78
2023/01/06 12:07:46;;;;;;;5.90;3.37;;;9.40;99.90;;;;;;21352530;27;20035;-78
2023/01/06 12:17:56;;;;;;;5.10;3.00;;;9.40;99.90;;;;;;21325150;27;20047;-77
2023/01/06 12:28:20;;;;;;;4.25;2.50;;;9.60;99.90;;;;;;21254971;27;20497;-76
2023/01/06 12:38:42;;;;;;;5.40;2.85;;;9.70;99.90;;;;;;21256824;27;20127;-77
2023/01/06 12:49:14;;;;;;;6.68;3.47;;;10.00;99.90;;;;;;21253620;27;20031;-77
2023/01/06 12:59:44;;;;;;;3.90;2.00;;;10.20;99.90;;;;;;21253081;27;20039;-77
2023/01/06 13:10:09;;;;;;;3.83;2.00;;;9.90;99.90;;;;;;21227003;27;20035;-77
2023/01/06 13:20:22;;;;;;;3.03;2.53;;;9.40;99.90;;;;;;20825674;28;20123;-77
2023/01/06 13:30:28;;;;;;;5.55;2.88;;;9.10;99.90;;;;;;20828926;28;20229;-77
2023/01/06 13:40:34;;;;;;;4.97;2.83;;;8.90;99.90;;;;;;20822878;28;20037;-77
2023/01/06 13:50:40;;;;;;;5.90;3.60;;;8.90;99.90;;;;;;20918964;27;20043;-78
2023/01/06 14:00:42;;;;;;;6.07;3.58;;;8.90;99.90;;;;;;21274911;27;20040;-78
2023/01/06 14:10:45;;;;;;;5.88;3.28;;;8.90;99.90;;;;;;21330010;27;20096;-78
2023/01/06 14:20:46;;;;;;;11.00;4.10;;;9.00;99.90;;;;;;21315188;27;20039;-78
2023/01/06 14:30:48;;;;;;;6.60;3.77;;;9.10;99.90;;;;;;21251003;27;20084;-78
2023/01/06 14:41:04;;;;;;;10.95;6.63;;;9.00;99.90;;;;;;21247053;27;20039;-78
2023/01/06 14:51:09;;;;;;;7.40;3.88;;;9.00;99.90;;;;;;21258109;27;20514;-78
2023/01/06 15:01:32;;;;;;;9.27;4.85;;;9.00;99.90;;;;;;21284046;27;20030;-78
2023/01/06 15:11:40;;;;;;;7.18;4.40;;;8.90;99.90;;;;;;21257597;27;20031;-78
2023/01/06 15:21:45;;;;;;;8.60;3.72;;;8.90;99.90;;;;;;21248344;27;20039;-78
2023/01/06 15:31:48;;;;;;;7.63;4.18;;;8.80;99.90;;;;;;21268277;27;20084;-78
2023/01/06 15:41:50;;;;;;;7.13;4.15;;;8.70;99.90;;;;;;21094285;28;20114;-77
2023/01/06 15:51:57;;;;;;;7.97;4.00;;;8.70;99.90;;;;;;21085974;28;20040;-77
2023/01/06 16:01:58;;;;;;;11.10;6.03;;;8.60;99.90;;;;;;21116276;28;20548;-77
2023/01/06 16:12:02;;;;;;;8.93;5.33;;;8.50;99.90;;;;;;21228324;27;20124;-77
2023/01/06 16:22:17;;;;;;;10.70;5.63;;;8.40;99.90;;;;;;21241026;27;20393;-77
2023/01/06 16:32:32;;;;;;;8.60;5.10;;;8.30;99.90;;;;;;21251098;27;20039;-76
2023/01/06 16:42:44;;;;;;;6.15;3.95;;;8.30;99.90;;;;;;21245888;27;20543;-75
2023/01/06 16:52:49;;;;;;;41.65;18.27;;;8.50;99.90;;;;;;21245535;27;20043;-76
2023/01/06 17:02:57;;;;;;;9.63;4.95;;;8.90;99.90;;;;;;21243147;27;20050;-76
2023/01/06 17:23:22;;;;;;;9.70;6.30;;;8.30;99.90;;;;;;21247523;28;20085;-77
2023/01/06 17:33:23;;;;;;;8.23;4.40;;;8.20;99.90;;;;;;21245986;27;20042;-77
2023/01/06 17:43:32;;;;;;;6.87;4.00;;;8.20;99.90;;;;;;21241422;27;20067;-77
2023/01/06 18:03:56;;;;;;;6.25;4.20;;;8.20;99.90;;;;;;21229099;28;20039;-77
2023/01/06 18:14:12;;;;;;;10.38;5.18;;;8.20;99.90;;;;;;21249025;27;20093;-77
2023/01/06 18:24:33;;;;;;;9.90;6.05;;;8.10;99.90;;;;;;21259443;27;20114;-77
2023/01/06 18:34:39;;;;;;;;;;;8.10;99.90;;;;;;21241846;27;20057;-77
2023/01/06 18:44:41;;;;;;;8.63;4.85;;;8.10;99.90;;;;;;21258293;27;20339;-77
2023/01/06 18:54:42;;;;;;;13.32;5.88;;;8.10;99.90;;;;;;21256337;27;20043;-77
2023/01/06 19:04:44;;;;;;;;;;;7.90;99.90;;;;;;21252376;27;20181;-77
2023/01/06 19:14:48;;;;;;;14.37;7.57;;;7.90;99.90;;;;;;21250714;27;20401;-76
2023/01/06 19:25:03;;;;;;;10.93;6.32;;;7.90;99.90;;;;;;21252624;27;20031;-77
2023/01/06 19:35:22;;;;;;;13.82;7.00;;;8.00;99.90;;;;;;21249796;27;20493;-76
2023/01/06 19:45:30;;;;;;;12.80;7.07;;;7.90;99.90;;;;;;21250243;27;20047;-77
2023/01/06 19:55:32;;;;;;;13.93;7.80;;;7.80;99.90;;;;;;21243566;27;20044;-78
2023/01/06 20:05:33;;;;;;;17.75;8.15;;;7.80;99.90;;;;;;21252973;27;20043;-78
2023/01/06 20:15:34;;;;;;;13.98;7.63;;;7.70;99.90;;;;;;21260044;27;20143;-78
2023/01/06 20:25:35;;;;;;;11.90;6.97;;;7.70;99.90;;;;;;21234522;27;20083;-77
2023/01/06 20:35:36;;;;;;;12.45;8.05;;;7.80;99.90;;;;;;21234249;27;20059;-77
2023/01/06 20:45:37;;;;;;;15.73;9.13;;;7.80;99.90;;;;;;21261758;27;20053;-77
2023/01/06 20:55:38;;;;;;;11.77;6.73;;;7.70;99.90;;;;;;21328078;27;20062;-77
2023/01/06 21:05:39;;;;;;;13.30;7.25;;;7.70;99.90;;;;;;21260331;27;20393;-76
2023/01/06 21:15:41;;;;;;;12.37;6.73;;;7.70;99.90;;;;;;21329817;27;20071;-76
2023/01/06 21:25:44;;;;;;;11.82;6.68;;;7.70;99.90;;;;;;21282034;27;20506;-77
2023/01/06 21:35:45;;;;;;;11.95;6.47;;;7.70;99.90;;;;;;21246993;28;20035;-77
2023/01/06 21:45:46;;;;;;;14.80;8.10;;;7.80;99.90;;;;;;21242736;28;20035;-77
2023/01/06 21:55:47;;;;;;;14.15;8.10;;;7.70;99.90;;;;;;21243263;27;20299;-76
2023/01/06 22:05:48;;;;;;;18.58;8.40;;;7.60;99.90;;;;;;21255794;27;20041;-77
2023/01/06 22:15:50;;;;;;;13.80;7.43;;;7.50;99.90;;;;;;21258878;27;20088;-76
2023/01/06 22:25:52;;;;;;;13.30;7.80;;;7.50;99.90;;;;;;21250908;27;20118;-76
2023/01/06 22:35:59;;;;;;;14.67;7.83;;;7.50;99.90;;;;;;21257384;27;20062;-77
2023/01/06 22:46:01;;;;;;;14.88;8.57;;;7.50;99.90;;;;;;21256521;27;20050;-77
2023/01/06 22:56:10;;;;;;;20.02;9.00;;;7.50;99.90;;;;;;21256046;27;20023;-76
2023/01/06 23:06:14;;;;;;;20.33;10.48;;;7.40;99.90;;;;;;21256711;27;20503;-76
2023/01/06 23:16:18;;;;;;;21.67;11.32;;;7.40;99.90;;;;;;21254149;27;20035;-77
2023/01/06 23:26:24;;;;;;;22.33;11.23;;;7.30;99.90;;;;;;21300144;27;20055;-77
2023/01/06 23:36:26;;;;;;;25.05;11.73;;;7.30;99.90;;;;;;21252201;27;20046;-76
2023/01/06 23:46:31;;;;;;;27.77;11.25;;;7.30;99.90;;;;;;21252717;27;20039;-77
2023/01/06 23:56:34;;;;;;;20.15;10.23;;;7.30;99.90;;;;;;21154917;28;20490;-76
